createdAt,value
2023-05-23T00:00:53.165Z,98168.00
2023-05-23T00:03:22.976Z,98170.00
2023-05-23T00:05:52.516Z,98171.00
2023-05-23T00:08:20.682Z,98168.00
2023-05-23T00:10:48.745Z,98174.00
2023-05-23T00:13:17.685Z,98169.00
2023-05-23T00:15:46.768Z,98166.00
2023-05-23T00:18:15.387Z,98168.00
2023-05-23T00:20:43.621Z,98166.00
2023-05-23T00:23:19.000Z,98165.00
2023-05-23T00:25:53.169Z,98164.00
2023-05-23T00:28:21.531Z,98161.00
2023-05-23T00:30:50.179Z,98170.00
2023-05-23T00:33:21.904Z,98160.00
2023-05-23T00:35:49.997Z,98169.00
2023-05-23T00:38:19.677Z,98167.00
2023-05-23T00:40:48.358Z,98174.00
2023-05-23T00:43:16.409Z,98170.00
2023-05-23T00:45:44.530Z,98170.00
2023-05-23T00:48:12.829Z,98173.00
2023-05-23T00:50:40.886Z,98174.00
2023-05-23T00:53:09.380Z,98173.00
2023-05-23T00:55:39.777Z,98183.00
2023-05-23T00:58:07.995Z,98184.00
2023-05-23T01:00:38.629Z,98184.00
2023-05-23T01:03:06.768Z,98186.00
2023-05-23T01:05:34.873Z,98176.00
2023-05-23T01:08:03.444Z,98172.00
2023-05-23T01:10:31.999Z,98176.00
2023-05-23T01:13:08.107Z,98172.00
2023-05-23T01:15:39.314Z,98171.00
2023-05-23T01:18:09.314Z,98170.00
2023-05-23T01:20:41.061Z,98173.00
2023-05-23T01:23:19.720Z,98168.00
2023-05-23T01:26:02.236Z,98164.00
2023-05-23T01:28:33.189Z,98163.00
2023-05-23T01:31:02.101Z,98164.00
2023-05-23T01:33:30.827Z,98163.00
2023-05-23T01:35:59.727Z,98168.00
2023-05-23T01:38:27.861Z,98167.00
2023-05-23T01:40:56.314Z,98161.00
2023-05-23T01:43:24.445Z,98158.00
2023-05-23T01:45:54.036Z,98166.00
2023-05-23T01:48:22.221Z,98166.00
2023-05-23T01:50:50.462Z,98174.00
2023-05-23T01:53:21.339Z,98180.00
2023-05-23T01:55:49.498Z,98176.00
2023-05-23T01:58:17.581Z,98180.00
2023-05-23T02:00:45.726Z,98176.00
2023-05-23T02:03:15.551Z,98188.00
2023-05-23T02:05:44.061Z,98182.00
2023-05-23T02:08:12.333Z,98188.00
2023-05-23T02:10:40.527Z,98196.00
2023-05-23T02:13:08.568Z,98186.00
2023-05-23T02:15:36.927Z,98189.00
2023-05-23T02:18:06.648Z,98191.00
2023-05-23T02:20:36.165Z,98196.00
2023-05-23T02:23:04.237Z,98191.00
2023-05-23T02:25:32.373Z,98192.00
2023-05-23T02:28:00.668Z,98189.00
2023-05-23T02:30:28.758Z,98186.00
2023-05-23T02:32:57.689Z,98200.00
2023-05-23T02:35:25.870Z,98193.00
2023-05-23T02:37:55.324Z,98197.00
2023-05-23T02:40:23.404Z,98195.00
2023-05-23T02:42:51.738Z,98207.00
2023-05-23T02:45:19.986Z,98211.00
2023-05-23T02:47:48.132Z,98211.00
2023-05-23T02:50:16.285Z,98210.00
2023-05-23T02:52:44.365Z,98213.00
2023-05-23T02:55:13.902Z,98213.00
2023-05-23T02:57:42.026Z,98216.00
2023-05-23T03:00:12.203Z,98217.00
2023-05-23T03:02:40.485Z,98224.00
2023-05-23T03:05:09.457Z,98220.00
2023-05-23T03:07:38.264Z,98223.00
2023-05-23T03:10:07.965Z,98217.00
2023-05-23T03:12:38.227Z,98223.00
2023-05-23T03:15:07.741Z,98227.00
2023-05-23T03:17:36.304Z,98224.00
2023-05-23T03:20:05.175Z,98223.00
2023-05-23T03:22:33.693Z,98225.00
2023-05-23T03:25:02.157Z,98228.00
2023-05-23T03:27:30.569Z,98223.00
2023-05-23T03:30:00.350Z,98234.00
2023-05-23T03:32:28.661Z,98231.00
2023-05-23T03:34:56.955Z,98243.00
2023-05-23T03:37:25.291Z,98241.00
2023-05-23T03:39:53.557Z,98235.00
2023-05-23T03:42:21.977Z,98253.00
2023-05-23T03:44:50.262Z,98249.00
2023-05-23T03:47:19.867Z,98253.00
2023-05-23T03:49:48.054Z,98251.00
2023-05-23T03:52:16.436Z,98258.00
2023-05-23T03:54:44.610Z,98258.00
2023-05-23T03:57:12.922Z,98263.00
2023-05-23T03:59:41.248Z,98264.00
2023-05-23T04:02:10.007Z,98268.00
2023-05-23T04:04:40.331Z,98273.00
2023-05-23T04:07:10.199Z,98273.00
2023-05-23T04:09:38.522Z,98278.00
2023-05-23T04:12:09.386Z,98280.00
2023-05-23T04:14:37.612Z,98271.00
2023-05-23T04:17:06.142Z,98272.00
2023-05-23T04:19:35.191Z,98284.00
2023-05-23T04:22:04.871Z,98285.00
2023-05-23T04:24:33.076Z,98287.00
2023-05-23T04:27:01.134Z,98288.00
2023-05-23T04:29:31.645Z,98282.00
2023-05-23T04:31:59.713Z,98285.00
2023-05-23T04:34:27.767Z,98283.00
2023-05-23T04:36:56.154Z,98291.00
2023-05-23T04:39:25.678Z,98301.00
2023-05-23T04:41:54.512Z,98295.00
2023-05-23T04:44:22.616Z,98290.00
2023-05-23T04:46:57.326Z,98290.00
2023-05-23T04:49:25.536Z,98296.00
2023-05-23T04:51:53.743Z,98293.00
2023-05-23T04:54:22.075Z,98298.00
2023-05-23T04:56:51.729Z,98297.00
2023-05-23T04:59:20.064Z,98296.00
2023-05-23T05:01:48.204Z,98289.00
2023-05-23T05:04:16.677Z,98300.00
2023-05-23T05:06:44.763Z,98292.00
2023-05-23T05:09:12.836Z,98293.00
2023-05-23T05:11:40.953Z,98306.00
2023-05-23T05:14:10.429Z,98300.00
2023-05-23T05:16:38.543Z,98311.00
2023-05-23T05:19:06.686Z,98312.00
2023-05-23T05:21:34.824Z,98312.00
2023-05-23T05:24:02.866Z,98309.00
2023-05-23T05:26:31.011Z,98310.00
2023-05-23T05:28:59.037Z,98312.00
2023-05-23T05:31:29.658Z,98317.00
2023-05-23T05:33:57.731Z,98314.00
2023-05-23T05:36:25.954Z,98315.00
2023-05-23T05:38:54.262Z,98317.00
2023-05-23T05:41:22.506Z,98310.00
2023-05-23T05:43:51.248Z,98328.00
2023-05-23T05:46:19.753Z,98323.00
2023-05-23T05:48:49.238Z,98321.00
2023-05-23T05:51:17.639Z,98321.00
2023-05-23T05:53:46.472Z,98326.00
2023-05-23T05:56:14.724Z,98326.00
2023-05-23T05:58:42.771Z,98328.00
2023-05-23T06:01:10.812Z,98325.00
2023-05-23T06:03:45.196Z,98325.00
2023-05-23T06:06:14.862Z,98326.00
2023-05-23T06:08:43.176Z,98333.00
2023-05-23T06:11:12.119Z,98340.00
2023-05-23T06:13:40.197Z,98351.00
2023-05-23T06:16:08.809Z,98340.00
2023-05-23T06:18:36.903Z,98346.00
2023-05-23T06:21:05.017Z,98344.00
2023-05-23T06:23:34.518Z,98351.00
2023-05-23T06:26:02.555Z,98343.00
2023-05-23T06:28:32.952Z,98353.00
2023-05-23T06:31:01.159Z,98340.00
2023-05-23T06:33:29.508Z,98346.00
2023-05-23T06:35:57.550Z,98356.00
2023-05-23T06:38:27.152Z,98353.00
2023-05-23T06:40:56.560Z,98351.00
2023-05-23T06:43:24.610Z,98347.00
2023-05-23T06:45:52.918Z,98353.00
2023-05-23T06:48:20.992Z,98351.00
2023-05-23T06:50:49.039Z,98354.00
2023-05-23T06:53:19.243Z,98353.00
2023-05-23T06:55:47.502Z,98354.00
2023-05-23T06:58:17.259Z,98364.00
2023-05-23T07:00:45.323Z,98369.00
2023-05-23T07:03:13.352Z,98368.00
2023-05-23T07:05:41.707Z,98360.00
2023-05-23T07:08:10.938Z,98362.00
2023-05-23T07:10:41.682Z,98365.00
2023-05-23T07:13:10.146Z,98370.00
2023-05-23T07:15:39.592Z,98369.00
2023-05-23T07:18:07.911Z,98374.00
2023-05-23T07:20:36.028Z,98369.00
2023-05-23T07:23:04.085Z,98365.00
2023-05-23T07:25:32.217Z,98375.00
2023-05-23T07:28:00.306Z,98377.00
2023-05-23T07:30:28.471Z,98374.00
2023-05-23T07:32:57.929Z,98377.00
2023-05-23T07:35:26.337Z,98376.00
2023-05-23T07:37:54.477Z,98369.00
2023-05-23T07:40:22.751Z,98364.00
2023-05-23T07:42:50.826Z,98362.00
2023-05-23T07:45:18.917Z,98372.00
2023-05-23T07:47:46.980Z,98365.00
2023-05-23T07:50:16.504Z,98370.00
2023-05-23T07:52:45.007Z,98369.00
2023-05-23T07:55:13.038Z,98373.00
2023-05-23T07:57:41.237Z,98375.00
2023-05-23T08:00:11.377Z,98377.00
2023-05-23T08:02:39.486Z,98380.00
2023-05-23T08:05:08.672Z,98378.00
2023-05-23T08:07:38.125Z,98392.00
2023-05-23T08:10:07.289Z,98383.00
2023-05-23T08:12:35.355Z,98404.00
2023-05-23T08:15:03.899Z,98391.00
2023-05-23T08:17:32.081Z,98404.00
2023-05-23T08:20:01.281Z,98405.00
2023-05-23T08:22:29.364Z,98407.00
2023-05-23T08:24:58.794Z,98406.00
2023-05-23T08:27:26.867Z,98397.00
2023-05-23T08:29:55.773Z,98404.00
2023-05-23T08:32:23.864Z,98406.00
2023-05-23T08:34:51.927Z,98422.00
2023-05-23T08:37:19.958Z,98426.00
2023-05-23T08:39:48.013Z,98425.00
2023-05-23T08:42:17.634Z,98432.00
2023-05-23T08:44:45.722Z,98434.00
2023-05-23T08:47:13.779Z,98437.00
2023-05-23T08:49:41.831Z,98434.00
2023-05-23T08:52:09.924Z,98438.00
2023-05-23T08:54:38.476Z,98445.00
2023-05-23T08:57:06.850Z,98449.00
2023-05-23T08:59:36.304Z,98450.00
2023-05-23T09:02:04.431Z,98447.00
2023-05-23T09:04:33.036Z,98450.00
2023-05-23T09:07:01.133Z,98444.00
2023-05-23T09:09:29.308Z,98460.00
2023-05-23T09:11:57.334Z,98454.00
2023-05-23T09:14:26.874Z,98453.00
2023-05-23T09:17:04.005Z,98459.00
2023-05-23T09:19:33.544Z,98462.00
2023-05-23T09:22:03.301Z,98468.00
2023-05-23T09:24:35.646Z,98458.00
2023-05-23T09:27:04.203Z,98463.00
2023-05-23T09:29:32.273Z,98476.00
2023-05-23T09:32:15.736Z,98463.00
2023-05-23T09:34:43.998Z,98463.00
2023-05-23T09:37:18.338Z,98456.00
2023-05-23T09:39:47.655Z,98466.00
2023-05-23T09:42:20.820Z,98468.00
2023-05-23T09:44:48.871Z,98472.00
2023-05-23T09:47:18.646Z,98474.00
2023-05-23T09:49:47.209Z,98479.00
2023-05-23T09:52:15.228Z,98464.00
2023-05-23T09:54:44.475Z,98472.00
2023-05-23T09:57:12.601Z,98465.00
2023-05-23T09:59:41.847Z,98475.00
2023-05-23T10:02:13.558Z,98466.00
2023-05-23T10:04:43.128Z,98469.00
2023-05-23T10:07:15.846Z,98462.00
2023-05-23T10:09:44.400Z,98473.00
2023-05-23T10:12:43.851Z,98474.00
2023-05-23T10:15:12.974Z,98473.00
2023-05-23T10:17:47.302Z,98475.00
2023-05-23T10:20:17.494Z,98473.00
2023-05-23T10:22:45.861Z,98473.00
2023-05-23T10:25:14.956Z,98469.00
2023-05-23T10:27:43.007Z,98477.00
2023-05-23T10:30:12.028Z,98471.00
2023-05-23T10:32:40.211Z,98471.00
2023-05-23T10:35:11.634Z,98479.00
2023-05-23T10:37:44.552Z,98478.00
2023-05-23T10:40:15.005Z,98474.00
2023-05-23T10:42:46.601Z,98480.00
2023-05-23T10:45:18.913Z,98476.00
2023-05-23T10:47:48.162Z,98471.00
2023-05-23T10:50:17.419Z,98474.00
2023-05-23T10:52:46.899Z,98484.00
2023-05-23T10:55:15.747Z,98478.00
2023-05-23T10:57:45.845Z,98478.00
2023-05-23T11:00:15.951Z,98492.00
2023-05-23T11:02:55.765Z,98487.00
2023-05-23T11:05:25.115Z,98482.00
2023-05-23T11:08:10.816Z,98483.00
2023-05-23T11:10:58.118Z,98490.00
2023-05-23T11:13:26.285Z,98497.00
2023-05-23T11:15:54.763Z,98500.00
2023-05-23T11:18:24.557Z,98503.00
2023-05-23T11:20:54.412Z,98501.00
2023-05-23T11:23:24.070Z,98502.00
2023-05-23T11:25:53.805Z,98502.00
2023-05-23T11:28:21.962Z,98500.00
2023-05-23T11:30:50.248Z,98506.00
2023-05-23T11:33:18.783Z,98504.00
2023-05-23T11:35:48.418Z,98498.00
2023-05-23T11:38:17.065Z,98499.00
2023-05-23T11:40:47.282Z,98504.00
2023-05-23T11:43:16.656Z,98509.00
2023-05-23T11:45:47.018Z,98498.00
2023-05-23T11:48:16.445Z,98506.00
2023-05-23T11:50:45.305Z,98502.00
2023-05-23T11:53:13.489Z,98506.00
2023-05-23T11:55:41.888Z,98512.00
2023-05-23T11:58:11.771Z,98509.00
2023-05-23T12:00:44.894Z,98511.00
2023-05-23T12:03:13.214Z,98511.00
2023-05-23T12:05:43.959Z,98511.00
2023-05-23T12:08:12.994Z,98509.00
2023-05-23T12:10:51.226Z,98512.00
2023-05-23T12:13:20.784Z,98513.00
2023-05-23T12:15:50.835Z,98512.00
2023-05-23T12:18:21.092Z,98509.00
2023-05-23T12:20:50.219Z,98510.00
2023-05-23T12:23:22.348Z,98514.00
2023-05-23T12:25:53.451Z,98520.00
2023-05-23T12:28:36.720Z,98514.00
2023-05-23T12:31:12.418Z,98512.00
2023-05-23T12:33:41.321Z,98513.00
2023-05-23T12:36:09.424Z,98502.00
2023-05-23T12:38:40.805Z,98526.00
2023-05-23T12:41:09.985Z,98526.00
2023-05-23T12:43:40.932Z,98537.00
2023-05-23T12:46:09.143Z,98524.00
2023-05-23T12:48:37.209Z,98518.00
2023-05-23T12:51:05.811Z,98525.00
2023-05-23T12:53:34.970Z,98528.00
2023-05-23T12:56:03.098Z,98526.00
2023-05-23T12:58:32.302Z,98531.00
2023-05-23T13:01:02.593Z,98523.00
2023-05-23T13:03:31.170Z,98530.00
2023-05-23T13:05:59.308Z,98515.00
2023-05-23T13:08:27.676Z,98530.00
2023-05-23T13:10:55.782Z,98525.00
2023-05-23T13:13:23.870Z,98523.00
2023-05-23T13:15:52.078Z,98526.00
2023-05-23T13:18:21.858Z,98525.00
2023-05-23T13:20:50.087Z,98527.00
2023-05-23T13:23:18.192Z,98529.00
2023-05-23T13:25:46.541Z,98521.00
2023-05-23T13:28:14.669Z,98531.00
2023-05-23T13:30:44.294Z,98524.00
2023-05-23T13:33:14.931Z,98520.00
2023-05-23T13:35:44.652Z,98516.00
2023-05-23T13:38:13.062Z,98519.00
2023-05-23T13:40:41.478Z,98525.00
2023-05-23T13:43:09.738Z,98517.00
2023-05-23T13:45:37.866Z,98520.00
2023-05-23T13:48:06.203Z,98524.00
2023-05-23T13:50:34.306Z,98536.00
2023-05-23T13:53:03.847Z,98529.00
2023-05-23T13:55:31.931Z,98535.00
2023-05-23T13:57:59.996Z,98531.00
2023-05-23T14:00:28.134Z,98536.00
2023-05-23T14:02:56.518Z,98539.00
2023-05-23T14:05:24.627Z,98534.00
2023-05-23T14:07:53.290Z,98542.00
2023-05-23T14:10:23.539Z,98549.00
2023-05-23T14:12:51.680Z,98547.00
2023-05-23T14:15:19.832Z,98551.00
2023-05-23T14:17:47.982Z,98563.00
2023-05-23T14:20:16.230Z,98550.00
2023-05-23T14:22:44.339Z,98544.00
2023-05-23T14:25:12.485Z,98565.00
2023-05-23T14:27:41.969Z,98568.00
2023-05-23T14:30:11.156Z,98569.00
2023-05-23T14:32:39.687Z,98559.00
2023-05-23T14:35:26.017Z,98568.00
2023-05-23T14:37:55.235Z,98572.00
2023-05-23T14:40:33.516Z,98573.00
2023-05-23T14:43:03.954Z,98572.00
2023-05-23T14:45:45.207Z,98571.00
2023-05-23T14:48:27.833Z,98569.00
2023-05-23T14:51:02.127Z,98579.00
2023-05-23T14:53:39.039Z,98561.00
2023-05-23T14:56:14.425Z,98566.00
2023-05-23T14:59:16.516Z,98563.00
2023-05-23T15:01:51.231Z,98567.00
2023-05-23T15:04:20.461Z,98572.00
2023-05-23T15:06:56.267Z,98569.00
2023-05-23T15:09:29.817Z,98575.00
2023-05-23T15:12:07.922Z,98569.00
2023-05-23T15:14:41.325Z,98565.00
2023-05-23T15:17:15.590Z,98575.00
2023-05-23T15:19:48.014Z,98575.00
2023-05-23T15:22:36.662Z,98565.00
2023-05-23T15:25:14.836Z,98571.00
2023-05-23T15:27:46.131Z,98570.00
2023-05-23T15:30:25.149Z,98568.00
2023-05-23T15:32:59.820Z,98577.00
2023-05-23T15:35:35.951Z,98586.00
2023-05-23T15:38:04.917Z,98577.00
2023-05-23T15:40:36.805Z,98582.00
2023-05-23T15:43:08.854Z,98577.00
2023-05-23T15:45:52.273Z,98584.00
2023-05-23T15:48:21.636Z,98584.00
2023-05-23T15:50:59.813Z,98585.00
2023-05-23T15:53:43.354Z,98581.00
2023-05-23T15:56:25.726Z,98587.00
2023-05-23T15:58:58.919Z,98595.00
2023-05-23T16:01:39.819Z,98600.00
2023-05-23T16:04:30.962Z,98603.00
2023-05-23T16:07:31.275Z,98607.00
2023-05-23T16:10:18.088Z,98609.00
2023-05-23T16:13:01.567Z,98614.00
2023-05-23T16:15:50.174Z,98612.00
2023-05-23T16:18:27.582Z,98609.00
2023-05-23T16:21:00.498Z,98622.00
2023-05-23T16:23:38.768Z,98618.00
2023-05-23T16:26:17.961Z,98621.00
2023-05-23T16:28:52.119Z,98624.00
2023-05-23T16:31:30.134Z,98625.00
2023-05-23T16:34:08.653Z,98631.00
2023-05-23T16:36:58.701Z,98626.00
2023-05-23T16:39:30.771Z,98644.00
2023-05-23T16:42:05.735Z,98638.00
2023-05-23T16:44:39.890Z,98645.00
2023-05-23T16:47:16.272Z,98633.00
2023-05-23T16:50:02.992Z,98631.00
2023-05-23T16:52:40.918Z,98630.00
2023-05-23T16:55:17.811Z,98634.00
2023-05-23T16:57:49.720Z,98627.00
2023-05-23T17:00:23.630Z,98638.00
2023-05-23T17:02:59.400Z,98671.00
2023-05-23T17:05:58.999Z,98610.00
2023-05-23T17:08:36.661Z,98558.00
2023-05-23T17:11:13.977Z,98696.00
2023-05-23T17:13:51.367Z,98633.00
2023-05-23T17:16:33.782Z,98653.00
2023-05-23T17:19:02.798Z,98656.00
2023-05-23T17:21:42.512Z,98658.00
2023-05-23T17:24:16.324Z,98624.00
2023-05-23T17:26:57.816Z,98651.00
2023-05-23T17:29:27.387Z,98641.00
2023-05-23T17:32:03.034Z,98646.00
2023-05-23T17:34:47.420Z,98636.00
2023-05-23T17:37:21.017Z,98661.00
2023-05-23T17:39:55.264Z,98659.00
2023-05-23T17:42:40.157Z,98631.00
2023-05-23T17:45:29.440Z,98604.00
2023-05-23T17:48:09.645Z,98667.00
2023-05-23T17:50:51.936Z,98676.00
2023-05-23T17:53:22.263Z,98683.00
2023-05-23T17:56:08.255Z,98644.00
2023-05-23T17:58:40.963Z,98672.00
2023-05-23T18:01:17.037Z,98656.00
2023-05-23T18:03:51.900Z,98652.00
2023-05-23T18:06:43.703Z,98702.00
2023-05-23T18:09:35.514Z,98694.00
2023-05-23T18:12:12.929Z,98683.00
2023-05-23T18:14:55.896Z,98664.00
2023-05-23T18:17:32.859Z,98713.00
2023-05-23T18:20:08.239Z,98711.00
2023-05-23T18:22:49.003Z,98702.00
2023-05-23T18:25:27.867Z,98714.00
2023-05-23T18:28:09.036Z,98713.00
2023-05-23T18:30:40.742Z,98710.00
2023-05-23T18:33:13.271Z,98702.00
2023-05-23T18:35:52.773Z,98727.00
2023-05-23T18:38:26.842Z,98727.00
2023-05-23T18:41:06.333Z,98701.00
2023-05-23T18:43:36.452Z,98717.00
2023-05-23T18:46:18.562Z,98774.00
2023-05-23T18:48:57.493Z,98717.00
2023-05-23T18:51:33.234Z,98761.00
2023-05-23T18:54:11.129Z,98736.00
2023-05-23T18:56:45.699Z,98742.00
2023-05-23T18:59:23.352Z,98745.00
2023-05-23T19:02:00.434Z,98741.00
2023-05-23T19:04:32.506Z,98747.00
2023-05-23T19:07:03.078Z,98761.00
2023-05-23T19:09:41.756Z,98723.00
2023-05-23T19:12:12.494Z,98743.00
2023-05-23T19:14:41.740Z,98758.00
2023-05-23T19:17:14.676Z,98732.00
2023-05-23T19:19:49.496Z,98739.00
2023-05-23T19:22:21.265Z,98762.00
2023-05-23T19:24:52.826Z,98744.00
2023-05-23T19:27:28.401Z,98770.00
2023-05-23T19:30:02.986Z,98769.00
2023-05-23T19:32:42.270Z,98772.00
2023-05-23T19:35:18.538Z,98766.00
2023-05-23T19:37:49.533Z,98767.00
2023-05-23T19:40:22.004Z,98783.00
2023-05-23T19:42:58.167Z,98787.00
2023-05-23T19:45:31.976Z,98719.00
2023-05-23T19:48:08.178Z,98795.00
2023-05-23T19:50:44.636Z,98798.00
2023-05-23T19:53:18.512Z,98791.00
2023-05-23T19:55:49.564Z,98791.00
2023-05-23T19:58:30.736Z,98815.00
2023-05-23T20:01:06.116Z,98816.00
2023-05-23T20:03:40.860Z,98726.00
2023-05-23T20:06:14.412Z,98813.00
2023-05-23T20:08:52.132Z,98819.00
2023-05-23T20:11:31.318Z,98819.00
2023-05-23T20:14:06.900Z,98811.00
2023-05-23T20:16:36.146Z,98826.00
2023-05-23T20:19:05.107Z,98834.00
2023-05-23T20:21:33.986Z,98836.00
2023-05-23T20:24:02.914Z,98829.00
2023-05-23T20:26:37.395Z,98832.00
2023-05-23T20:29:16.627Z,98837.00
2023-05-23T20:31:46.553Z,98851.00
2023-05-23T20:34:18.505Z,98833.00
2023-05-23T20:36:56.407Z,98851.00
2023-05-23T20:39:30.903Z,98854.00
2023-05-23T20:42:04.737Z,98827.00
2023-05-23T20:44:43.152Z,98858.00
2023-05-23T20:47:19.445Z,98854.00
2023-05-23T20:49:51.381Z,98853.00
2023-05-23T20:52:24.881Z,98875.00
2023-05-23T20:55:01.452Z,98856.00
2023-05-23T20:57:37.101Z,98853.00
2023-05-23T21:00:27.301Z,98801.00
2023-05-23T21:03:02.487Z,98856.00
2023-05-23T21:05:40.253Z,98859.00
2023-05-23T21:08:14.031Z,98856.00
2023-05-23T21:10:49.801Z,98874.00
2023-05-23T21:13:25.436Z,98886.00
2023-05-23T21:15:57.502Z,98875.00
2023-05-23T21:18:33.553Z,98880.00
2023-05-23T21:21:06.554Z,98851.00
2023-05-23T21:23:44.053Z,98879.00
2023-05-23T21:26:20.416Z,98874.00
2023-05-23T21:28:50.016Z,98866.00
2023-05-23T21:31:37.147Z,98826.00
2023-05-23T21:34:24.037Z,98857.00
2023-05-23T21:37:00.526Z,98829.00
2023-05-23T21:39:42.990Z,98851.00
2023-05-23T21:42:16.428Z,98851.00
2023-05-23T21:44:50.541Z,98856.00
2023-05-23T21:47:26.194Z,98840.00
2023-05-23T21:50:02.465Z,98853.00
2023-05-23T21:52:34.333Z,98856.00
2023-05-23T21:55:05.786Z,98870.00
2023-05-23T21:57:41.643Z,98869.00
2023-05-23T22:00:14.578Z,98858.00
2023-05-23T22:02:49.753Z,98871.00
2023-05-23T22:05:23.880Z,98878.00
2023-05-23T22:08:02.186Z,98863.00
2023-05-23T22:10:37.126Z,98876.00
2023-05-23T22:13:15.432Z,98858.00
2023-05-23T22:15:56.594Z,98871.00
2023-05-23T22:18:43.751Z,98871.00
2023-05-23T22:21:28.394Z,98867.00
2023-05-23T22:24:01.000Z,98862.00
2023-05-23T22:26:32.722Z,98860.00
2023-05-23T22:29:10.214Z,98862.00
2023-05-23T22:31:44.892Z,98866.00
2023-05-23T22:34:17.932Z,98874.00
2023-05-23T22:36:48.165Z,98859.00
2023-05-23T22:39:24.520Z,98870.00
2023-05-23T22:42:03.442Z,98880.00
2023-05-23T22:44:44.141Z,98843.00
2023-05-23T22:47:19.922Z,98879.00
2023-05-23T22:49:55.931Z,98885.00
2023-05-23T22:52:28.625Z,98912.00
2023-05-23T22:55:08.865Z,98885.00
2023-05-23T22:57:40.742Z,98872.00
2023-05-23T23:00:16.172Z,98875.00
2023-05-23T23:02:46.592Z,98877.00
2023-05-23T23:05:17.153Z,98874.00
2023-05-23T23:07:46.121Z,98872.00
2023-05-23T23:10:19.550Z,98880.00
2023-05-23T23:12:55.175Z,98875.00
2023-05-23T23:15:37.272Z,98874.00
2023-05-23T23:18:07.062Z,98879.00
2023-05-23T23:20:43.077Z,98868.00
2023-05-23T23:23:12.346Z,98898.00
2023-05-23T23:25:51.273Z,98895.00
2023-05-23T23:28:25.814Z,98868.00
2023-05-23T23:30:56.592Z,98863.00
2023-05-23T23:33:27.367Z,98872.00
2023-05-23T23:36:02.620Z,98850.00
2023-05-23T23:38:37.761Z,98842.00
2023-05-23T23:41:10.332Z,98886.00
2023-05-23T23:43:45.466Z,98889.00
2023-05-23T23:46:16.096Z,98906.00
2023-05-23T23:48:51.548Z,98891.00
2023-05-23T23:51:27.600Z,98882.00
2023-05-23T23:53:56.573Z,98849.00
2023-05-23T23:56:34.292Z,98873.00
2023-05-23T23:59:10.244Z,98877.00
